sensor_id;sensor_type;location;lat;lon;timestamp;P1;durP1;ratioP1;P2;durP2;ratioP2
11422;SDS011;5768;51.476;7.210;2023-02-08T00:00:34;13.43;;;11.00;;
11422;SDS011;5768;51.476;7.210;2023-02-08T00:05:38;13.03;;;10.97;;
11422;SDS011;5768;51.476;7.210;2023-02-08T00:10:42;11.87;;;10.60;;
11422;SDS011;5768;51.476;7.210;2023-02-08T00:15:44;12.57;;;11.27;;
11422;SDS011;5768;51.476;7.210;2023-02-08T00:20:47;13.03;;;11.10;;
11422;SDS011;5768;51.476;7.210;2023-02-08T00:25:51;12.17;;;10.87;;
11422;SDS011;5768;51.476;7.210;2023-02-08T00:30:53;12.73;;;11.30;;
11422;SDS011;5768;51.476;7.210;2023-02-08T00:35:57;13.27;;;11.50;;
11422;SDS011;5768;51.476;7.210;2023-02-08T00:41:01;14.07;;;12.20;;
11422;SDS011;5768;51.476;7.210;2023-02-08T00:46:04;14.63;;;12.07;;
11422;SDS011;5768;51.476;7.210;2023-02-08T00:51:09;14.00;;;12.27;;
11422;SDS011;5768;51.476;7.210;2023-02-08T00:56:15;14.27;;;11.70;;
11422;SDS011;5768;51.476;7.210;2023-02-08T01:01:18;16.60;;;11.30;;
11422;SDS011;5768;51.476;7.210;2023-02-08T01:06:20;12.93;;;11.33;;
11422;SDS011;5768;51.476;7.210;2023-02-08T01:11:23;13.53;;;10.90;;
11422;SDS011;5768;51.476;7.210;2023-02-08T01:16:27;12.93;;;10.93;;
11422;SDS011;5768;51.476;7.210;2023-02-08T01:21:34;11.63;;;10.00;;
11422;SDS011;5768;51.476;7.210;2023-02-08T01:26:40;12.57;;;10.47;;
11422;SDS011;5768;51.476;7.210;2023-02-08T01:31:42;13.43;;;10.20;;
11422;SDS011;5768;51.476;7.210;2023-02-08T01:36:46;14.47;;;11.03;;
11422;SDS011;5768;51.476;7.210;2023-02-08T01:41:49;13.37;;;11.13;;
11422;SDS011;5768;51.476;7.210;2023-02-08T01:46:51;14.37;;;11.33;;
11422;SDS011;5768;51.476;7.210;2023-02-08T01:51:54;13.90;;;11.43;;
11422;SDS011;5768;51.476;7.210;2023-02-08T01:57:04;16.40;;;12.10;;
11422;SDS011;5768;51.476;7.210;2023-02-08T02:02:08;14.37;;;12.17;;
11422;SDS011;5768;51.476;7.210;2023-02-08T02:07:16;15.30;;;11.57;;
11422;SDS011;5768;51.476;7.210;2023-02-08T02:12:22;14.43;;;11.13;;
11422;SDS011;5768;51.476;7.210;2023-02-08T02:17:25;13.17;;;10.80;;
11422;SDS011;5768;51.476;7.210;2023-02-08T02:22:42;13.73;;;10.33;;
11422;SDS011;5768;51.476;7.210;2023-02-08T02:28:22;12.40;;;10.83;;
11422;SDS011;5768;51.476;7.210;2023-02-08T02:33:53;11.63;;;9.77;;
11422;SDS011;5768;51.476;7.210;2023-02-08T02:39:12;13.10;;;10.80;;
11422;SDS011;5768;51.476;7.210;2023-02-08T02:44:28;12.40;;;10.03;;
11422;SDS011;5768;51.476;7.210;2023-02-08T02:49:42;11.13;;;9.70;;
11422;SDS011;5768;51.476;7.210;2023-02-08T02:54:51;12.17;;;9.60;;
11422;SDS011;5768;51.476;7.210;2023-02-08T02:59:56;12.67;;;9.77;;
11422;SDS011;5768;51.476;7.210;2023-02-08T03:05:01;10.80;;;9.07;;
11422;SDS011;5768;51.476;7.210;2023-02-08T03:10:06;11.37;;;9.00;;
11422;SDS011;5768;51.476;7.210;2023-02-08T03:15:35;10.20;;;9.10;;
11422;SDS011;5768;51.476;7.210;2023-02-08T03:20:56;10.63;;;9.37;;
11422;SDS011;5768;51.476;7.210;2023-02-08T03:26:11;11.17;;;9.47;;
11422;SDS011;5768;51.476;7.210;2023-02-08T03:31:23;11.43;;;9.07;;
11422;SDS011;5768;51.476;7.210;2023-02-08T03:36:35;10.00;;;8.80;;
11422;SDS011;5768;51.476;7.210;2023-02-08T03:41:43;12.03;;;9.10;;
11422;SDS011;5768;51.476;7.210;2023-02-08T03:46:49;10.63;;;9.23;;
11422;SDS011;5768;51.476;7.210;2023-02-08T03:51:59;10.67;;;8.40;;
11422;SDS011;5768;51.476;7.210;2023-02-08T03:57:07;9.37;;;8.33;;
11422;SDS011;5768;51.476;7.210;2023-02-08T04:02:17;9.47;;;8.00;;
11422;SDS011;5768;51.476;7.210;2023-02-08T04:07:25;9.50;;;8.03;;
11422;SDS011;5768;51.476;7.210;2023-02-08T04:12:27;10.13;;;8.30;;
11422;SDS011;5768;51.476;7.210;2023-02-08T04:17:29;12.47;;;8.60;;
11422;SDS011;5768;51.476;7.210;2023-02-08T04:22:33;9.87;;;8.20;;
11422;SDS011;5768;51.476;7.210;2023-02-08T04:27:35;9.37;;;8.20;;
11422;SDS011;5768;51.476;7.210;2023-02-08T04:32:38;9.87;;;7.63;;
11422;SDS011;5768;51.476;7.210;2023-02-08T04:37:41;9.50;;;8.00;;
11422;SDS011;5768;51.476;7.210;2023-02-08T04:42:44;11.57;;;7.63;;
11422;SDS011;5768;51.476;7.210;2023-02-08T04:47:46;9.97;;;8.37;;
11422;SDS011;5768;51.476;7.210;2023-02-08T04:52:49;10.30;;;8.27;;
11422;SDS011;5768;51.476;7.210;2023-02-08T04:57:51;12.63;;;9.03;;
11422;SDS011;5768;51.476;7.210;2023-02-08T05:02:54;13.77;;;8.23;;
11422;SDS011;5768;51.476;7.210;2023-02-08T05:07:59;9.57;;;8.53;;
11422;SDS011;5768;51.476;7.210;2023-02-08T05:13:01;11.53;;;8.50;;
11422;SDS011;5768;51.476;7.210;2023-02-08T05:18:03;10.83;;;8.37;;
11422;SDS011;5768;51.476;7.210;2023-02-08T05:23:07;9.07;;;8.10;;
11422;SDS011;5768;51.476;7.210;2023-02-08T05:28:09;9.60;;;8.00;;
11422;SDS011;5768;51.476;7.210;2023-02-08T05:33:12;9.63;;;8.63;;
11422;SDS011;5768;51.476;7.210;2023-02-08T05:38:15;9.23;;;7.93;;
11422;SDS011;5768;51.476;7.210;2023-02-08T05:43:17;11.97;;;8.47;;
11422;SDS011;5768;51.476;7.210;2023-02-08T05:48:19;8.97;;;7.83;;
11422;SDS011;5768;51.476;7.210;2023-02-08T05:53:23;12.23;;;8.83;;
11422;SDS011;5768;51.476;7.210;2023-02-08T05:58:25;11.00;;;8.87;;
11422;SDS011;5768;51.476;7.210;2023-02-08T06:03:27;8.90;;;8.00;;
11422;SDS011;5768;51.476;7.210;2023-02-08T06:08:30;10.40;;;8.37;;
11422;SDS011;5768;51.476;7.210;2023-02-08T06:13:32;9.90;;;8.23;;
11422;SDS011;5768;51.476;7.210;2023-02-08T06:18:35;9.87;;;8.13;;
11422;SDS011;5768;51.476;7.210;2023-02-08T06:23:38;9.30;;;8.23;;
11422;SDS011;5768;51.476;7.210;2023-02-08T06:28:41;13.17;;;8.47;;
11422;SDS011;5768;51.476;7.210;2023-02-08T06:33:43;12.80;;;8.70;;
11422;SDS011;5768;51.476;7.210;2023-02-08T06:38:47;23.27;;;14.67;;
11422;SDS011;5768;51.476;7.210;2023-02-08T06:43:49;10.73;;;9.13;;
11422;SDS011;5768;51.476;7.210;2023-02-08T06:48:51;12.33;;;9.50;;
11422;SDS011;5768;51.476;7.210;2023-02-08T06:53:55;13.13;;;9.60;;
11422;SDS011;5768;51.476;7.210;2023-02-08T06:58:57;11.07;;;9.33;;
11422;SDS011;5768;51.476;7.210;2023-02-08T07:03:59;11.57;;;9.63;;
11422;SDS011;5768;51.476;7.210;2023-02-08T07:09:03;17.80;;;9.90;;
11422;SDS011;5768;51.476;7.210;2023-02-08T07:14:05;13.47;;;10.30;;
11422;SDS011;5768;51.476;7.210;2023-02-08T07:19:07;13.23;;;10.57;;
11422;SDS011;5768;51.476;7.210;2023-02-08T07:24:10;13.17;;;10.20;;
11422;SDS011;5768;51.476;7.210;2023-02-08T07:29:12;11.20;;;9.80;;
11422;SDS011;5768;51.476;7.210;2023-02-08T07:34:14;11.67;;;9.93;;
11422;SDS011;5768;51.476;7.210;2023-02-08T07:39:22;11.57;;;9.60;;
11422;SDS011;5768;51.476;7.210;2023-02-08T07:44:24;11.10;;;9.80;;
11422;SDS011;5768;51.476;7.210;2023-02-08T07:49:26;11.83;;;9.27;;
11422;SDS011;5768;51.476;7.210;2023-02-08T07:54:30;10.47;;;9.23;;
11422;SDS011;5768;51.476;7.210;2023-02-08T07:59:32;12.07;;;9.20;;
11422;SDS011;5768;51.476;7.210;2023-02-08T08:04:34;13.30;;;9.47;;
11422;SDS011;5768;51.476;7.210;2023-02-08T08:09:37;14.27;;;10.47;;
11422;SDS011;5768;51.476;7.210;2023-02-08T08:14:39;12.77;;;9.67;;
11422;SDS011;5768;51.476;7.210;2023-02-08T08:19:41;12.40;;;9.93;;
11422;SDS011;5768;51.476;7.210;2023-02-08T08:24:45;14.80;;;10.00;;
11422;SDS011;5768;51.476;7.210;2023-02-08T08:29:47;20.37;;;9.83;;
11422;SDS011;5768;51.476;7.210;2023-02-08T08:34:49;12.87;;;9.70;;
11422;SDS011;5768;51.476;7.210;2023-02-08T08:39:52;14.13;;;10.40;;
11422;SDS011;5768;51.476;7.210;2023-02-08T08:44:54;13.20;;;9.90;;
11422;SDS011;5768;51.476;7.210;2023-02-08T08:49:56;13.03;;;9.47;;
11422;SDS011;5768;51.476;7.210;2023-02-08T08:55:00;13.80;;;8.67;;
11422;SDS011;5768;51.476;7.210;2023-02-08T09:00:02;11.87;;;7.90;;
11422;SDS011;5768;51.476;7.210;2023-02-08T09:05:05;7.70;;;6.90;;
11422;SDS011;5768;51.476;7.210;2023-02-08T09:10:09;8.63;;;6.53;;
11422;SDS011;5768;51.476;7.210;2023-02-08T09:15:11;10.70;;;6.83;;
11422;SDS011;5768;51.476;7.210;2023-02-08T09:20:14;9.70;;;6.47;;
11422;SDS011;5768;51.476;7.210;2023-02-08T09:25:18;7.57;;;6.27;;
11422;SDS011;5768;51.476;7.210;2023-02-08T09:30:20;8.43;;;6.23;;
11422;SDS011;5768;51.476;7.210;2023-02-08T09:35:24;6.57;;;5.53;;
11422;SDS011;5768;51.476;7.210;2023-02-08T09:40:30;8.87;;;5.40;;
11422;SDS011;5768;51.476;7.210;2023-02-08T09:45:46;6.40;;;5.03;;
11422;SDS011;5768;51.476;7.210;2023-02-08T09:50:58;7.90;;;5.37;;
11422;SDS011;5768;51.476;7.210;2023-02-08T09:56:11;6.77;;;5.40;;
11422;SDS011;5768;51.476;7.210;2023-02-08T10:01:19;8.20;;;4.90;;
11422;SDS011;5768;51.476;7.210;2023-02-08T10:06:25;6.67;;;4.90;;
11422;SDS011;5768;51.476;7.210;2023-02-08T10:11:33;7.40;;;5.10;;
11422;SDS011;5768;51.476;7.210;2023-02-08T10:16:51;6.73;;;4.40;;
11422;SDS011;5768;51.476;7.210;2023-02-08T10:22:05;5.20;;;3.90;;
11422;SDS011;5768;51.476;7.210;2023-02-08T10:27:21;6.23;;;3.97;;
11422;SDS011;5768;51.476;7.210;2023-02-08T10:32:38;4.53;;;3.80;;
11422;SDS011;5768;51.476;7.210;2023-02-08T10:37:58;4.63;;;3.30;;
11422;SDS011;5768;51.476;7.210;2023-02-08T10:43:04;3.63;;;3.00;;
11422;SDS011;5768;51.476;7.210;2023-02-08T10:48:24;4.60;;;3.87;;
11422;SDS011;5768;51.476;7.210;2023-02-08T10:53:35;4.03;;;3.27;;
11422;SDS011;5768;51.476;7.210;2023-02-08T10:58:38;3.00;;;2.70;;
11422;SDS011;5768;51.476;7.210;2023-02-08T11:03:41;8.57;;;3.43;;
11422;SDS011;5768;51.476;7.210;2023-02-08T11:09:01;5.20;;;3.37;;
11422;SDS011;5768;51.476;7.210;2023-02-08T11:14:06;4.47;;;3.30;;
11422;SDS011;5768;51.476;7.210;2023-02-08T11:19:17;4.50;;;3.40;;
11422;SDS011;5768;51.476;7.210;2023-02-08T11:24:26;5.07;;;3.50;;
11422;SDS011;5768;51.476;7.210;2023-02-08T11:29:36;6.10;;;3.77;;
11422;SDS011;5768;51.476;7.210;2023-02-08T11:34:38;4.70;;;3.70;;
11422;SDS011;5768;51.476;7.210;2023-02-08T11:39:41;7.80;;;3.97;;
11422;SDS011;5768;51.476;7.210;2023-02-08T11:44:50;5.13;;;3.80;;
11422;SDS011;5768;51.476;7.210;2023-02-08T11:49:55;6.60;;;3.77;;
11422;SDS011;5768;51.476;7.210;2023-02-08T11:55:11;4.53;;;3.60;;
11422;SDS011;5768;51.476;7.210;2023-02-08T12:00:25;5.00;;;3.60;;
11422;SDS011;5768;51.476;7.210;2023-02-08T12:05:39;5.20;;;3.37;;
11422;SDS011;5768;51.476;7.210;2023-02-08T12:11:00;6.63;;;3.83;;
11422;SDS011;5768;51.476;7.210;2023-02-08T12:16:23;4.57;;;3.40;;
11422;SDS011;5768;51.476;7.210;2023-02-08T12:21:51;4.13;;;3.30;;
11422;SDS011;5768;51.476;7.210;2023-02-08T12:27:08;4.33;;;3.40;;
11422;SDS011;5768;51.476;7.210;2023-02-08T12:32:32;3.93;;;3.13;;
11422;SDS011;5768;51.476;7.210;2023-02-08T12:38:16;4.77;;;3.07;;
11422;SDS011;5768;51.476;7.210;2023-02-08T12:43:54;2.93;;;2.63;;
11422;SDS011;5768;51.476;7.210;2023-02-08T12:49:09;5.17;;;2.80;;
11422;SDS011;5768;51.476;7.210;2023-02-08T12:54:36;3.07;;;2.47;;
11422;SDS011;5768;51.476;7.210;2023-02-08T12:59:46;4.57;;;3.20;;
11422;SDS011;5768;51.476;7.210;2023-02-08T13:04:56;3.57;;;2.90;;
11422;SDS011;5768;51.476;7.210;2023-02-08T13:10:05;3.53;;;3.10;;
11422;SDS011;5768;51.476;7.210;2023-02-08T13:15:17;2.83;;;2.53;;
11422;SDS011;5768;51.476;7.210;2023-02-08T13:20:30;3.30;;;2.90;;
11422;SDS011;5768;51.476;7.210;2023-02-08T13:25:40;2.85;;;2.55;;
11422;SDS011;5768;51.476;7.210;2023-02-08T13:30:44;4.63;;;3.10;;
11422;SDS011;5768;51.476;7.210;2023-02-08T13:35:56;3.10;;;2.80;;
11422;SDS011;5768;51.476;7.210;2023-02-08T13:41:06;2.88;;;2.60;;
11422;SDS011;5768;51.476;7.210;2023-02-08T13:46:18;2.95;;;2.67;;
11422;SDS011;5768;51.476;7.210;2023-02-08T13:57:03;3.65;;;2.60;;
11422;SDS011;5768;51.476;7.210;2023-02-08T14:02:58;3.90;;;2.60;;
11422;SDS011;5768;51.476;7.210;2023-02-08T14:08:02;4.35;;;2.58;;
11422;SDS011;5768;51.476;7.210;2023-02-08T14:13:15;3.65;;;2.60;;
11422;SDS011;5768;51.476;7.210;2023-02-08T14:18:29;3.13;;;2.80;;
11422;SDS011;5768;51.476;7.210;2023-02-08T14:23:32;3.47;;;2.80;;
11422;SDS011;5768;51.476;7.210;2023-02-08T14:28:39;3.15;;;2.80;;
11422;SDS011;5768;51.476;7.210;2023-02-08T14:33:50;3.28;;;2.97;;
11422;SDS011;5768;51.476;7.210;2023-02-08T14:50:07;4.07;;;3.00;;
11422;SDS011;5768;51.476;7.210;2023-02-08T14:55:19;3.60;;;2.85;;
11422;SDS011;5768;51.476;7.210;2023-02-08T15:00:27;3.75;;;2.40;;
11422;SDS011;5768;51.476;7.210;2023-02-08T15:05:38;2.95;;;2.72;;
11422;SDS011;5768;51.476;7.210;2023-02-08T15:10:48;3.50;;;2.65;;
11422;SDS011;5768;51.476;7.210;2023-02-08T15:15:51;3.13;;;2.50;;
11422;SDS011;5768;51.476;7.210;2023-02-08T15:21:00;3.10;;;2.75;;
11422;SDS011;5768;51.476;7.210;2023-02-08T15:26:17;3.60;;;2.80;;
11422;SDS011;5768;51.476;7.210;2023-02-08T15:31:25;3.63;;;2.97;;
11422;SDS011;5768;51.476;7.210;2023-02-08T15:36:35;2.95;;;2.63;;
11422;SDS011;5768;51.476;7.210;2023-02-08T15:41:39;3.63;;;3.20;;
11422;SDS011;5768;51.476;7.210;2023-02-08T15:46:41;4.25;;;3.17;;
11422;SDS011;5768;51.476;7.210;2023-02-08T15:51:46;3.05;;;2.75;;
11422;SDS011;5768;51.476;7.210;2023-02-08T15:56:50;4.90;;;3.38;;
11422;SDS011;5768;51.476;7.210;2023-02-08T16:01:57;6.50;;;3.50;;
11422;SDS011;5768;51.476;7.210;2023-02-08T16:07:20;6.32;;;3.88;;
11422;SDS011;5768;51.476;7.210;2023-02-08T16:12:28;6.35;;;4.28;;
11422;SDS011;5768;51.476;7.210;2023-02-08T16:17:32;8.30;;;4.70;;
11422;SDS011;5768;51.476;7.210;2023-02-08T16:22:40;6.80;;;4.43;;
11422;SDS011;5768;51.476;7.210;2023-02-08T16:27:45;10.65;;;4.38;;
11422;SDS011;5768;51.476;7.210;2023-02-08T16:32:48;8.52;;;4.80;;
11422;SDS011;5768;51.476;7.210;2023-02-08T16:37:55;7.43;;;5.53;;
11422;SDS011;5768;51.476;7.210;2023-02-08T16:43:13;5.32;;;4.80;;
11422;SDS011;5768;51.476;7.210;2023-02-08T16:48:25;10.65;;;5.65;;
11422;SDS011;5768;51.476;7.210;2023-02-08T16:53:36;8.32;;;5.30;;
11422;SDS011;5768;51.476;7.210;2023-02-08T16:58:39;9.98;;;5.35;;
11422;SDS011;5768;51.476;7.210;2023-02-08T17:03:41;8.30;;;5.78;;
11422;SDS011;5768;51.476;7.210;2023-02-08T17:08:44;7.68;;;5.30;;
11422;SDS011;5768;51.476;7.210;2023-02-08T17:13:46;7.13;;;4.40;;
11422;SDS011;5768;51.476;7.210;2023-02-08T17:18:48;6.38;;;4.63;;
11422;SDS011;5768;51.476;7.210;2023-02-08T17:23:52;8.10;;;4.70;;
11422;SDS011;5768;51.476;7.210;2023-02-08T17:28:54;9.37;;;5.07;;
11422;SDS011;5768;51.476;7.210;2023-02-08T17:33:58;9.57;;;5.00;;
11422;SDS011;5768;51.476;7.210;2023-02-08T17:39:05;7.30;;;5.00;;
11422;SDS011;5768;51.476;7.210;2023-02-08T17:44:07;11.00;;;4.87;;
11422;SDS011;5768;51.476;7.210;2023-02-08T17:49:11;12.37;;;8.00;;
11422;SDS011;5768;51.476;7.210;2023-02-08T17:54:16;9.57;;;5.43;;
11422;SDS011;5768;51.476;7.210;2023-02-08T17:59:20;7.73;;;5.40;;
11422;SDS011;5768;51.476;7.210;2023-02-08T18:04:22;8.83;;;5.67;;
11422;SDS011;5768;51.476;7.210;2023-02-08T18:09:26;9.37;;;6.27;;
11422;SDS011;5768;51.476;7.210;2023-02-08T18:14:28;9.57;;;7.20;;
11422;SDS011;5768;51.476;7.210;2023-02-08T18:19:30;9.57;;;6.60;;
11422;SDS011;5768;51.476;7.210;2023-02-08T18:24:33;10.27;;;7.07;;
11422;SDS011;5768;51.476;7.210;2023-02-08T18:29:35;8.47;;;7.07;;
11422;SDS011;5768;51.476;7.210;2023-02-08T18:34:37;9.47;;;6.27;;
11422;SDS011;5768;51.476;7.210;2023-02-08T18:39:43;8.33;;;5.83;;
11422;SDS011;5768;51.476;7.210;2023-02-08T18:44:45;6.30;;;5.17;;
11422;SDS011;5768;51.476;7.210;2023-02-08T18:49:51;6.63;;;4.70;;
11422;SDS011;5768;51.476;7.210;2023-02-08T18:54:55;4.67;;;4.17;;
11422;SDS011;5768;51.476;7.210;2023-02-08T18:59:57;6.30;;;4.07;;
11422;SDS011;5768;51.476;7.210;2023-02-08T19:05:00;5.20;;;3.40;;
11422;SDS011;5768;51.476;7.210;2023-02-08T19:10:04;5.27;;;3.37;;
11422;SDS011;5768;51.476;7.210;2023-02-08T19:15:07;6.50;;;3.30;;
11422;SDS011;5768;51.476;7.210;2023-02-08T19:20:10;8.03;;;5.80;;
11422;SDS011;5768;51.476;7.210;2023-02-08T19:25:14;5.80;;;3.60;;
11422;SDS011;5768;51.476;7.210;2023-02-08T19:30:17;5.63;;;3.90;;
11422;SDS011;5768;51.476;7.210;2023-02-08T19:35:20;4.07;;;3.37;;
11422;SDS011;5768;51.476;7.210;2023-02-08T19:40:23;6.50;;;3.60;;
11422;SDS011;5768;51.476;7.210;2023-02-08T19:45:25;4.23;;;3.40;;
11422;SDS011;5768;51.476;7.210;2023-02-08T19:50:27;5.10;;;3.70;;
11422;SDS011;5768;51.476;7.210;2023-02-08T19:55:31;5.53;;;3.93;;
11422;SDS011;5768;51.476;7.210;2023-02-08T20:00:33;5.60;;;3.57;;
11422;SDS011;5768;51.476;7.210;2023-02-08T20:05:35;4.33;;;3.30;;
11422;SDS011;5768;51.476;7.210;2023-02-08T20:10:39;3.93;;;3.50;;
11422;SDS011;5768;51.476;7.210;2023-02-08T20:15:43;4.50;;;3.60;;
11422;SDS011;5768;51.476;7.210;2023-02-08T20:20:45;4.43;;;3.63;;
11422;SDS011;5768;51.476;7.210;2023-02-08T20:26:05;4.30;;;3.63;;
11422;SDS011;5768;51.476;7.210;2023-02-08T20:31:11;4.63;;;3.90;;
11422;SDS011;5768;51.476;7.210;2023-02-08T20:36:17;6.47;;;3.70;;
11422;SDS011;5768;51.476;7.210;2023-02-08T20:41:23;7.10;;;4.67;;
11422;SDS011;5768;51.476;7.210;2023-02-08T20:46:30;4.60;;;3.70;;
11422;SDS011;5768;51.476;7.210;2023-02-08T20:51:35;6.97;;;4.57;;
11422;SDS011;5768;51.476;7.210;2023-02-08T20:56:38;4.63;;;4.00;;
11422;SDS011;5768;51.476;7.210;2023-02-08T21:01:41;6.47;;;3.90;;
11422;SDS011;5768;51.476;7.210;2023-02-08T21:06:45;4.83;;;4.00;;
11422;SDS011;5768;51.476;7.210;2023-02-08T21:11:49;6.63;;;4.47;;
11422;SDS011;5768;51.476;7.210;2023-02-08T21:16:52;6.27;;;4.20;;
11422;SDS011;5768;51.476;7.210;2023-02-08T21:21:59;5.20;;;4.00;;
11422;SDS011;5768;51.476;7.210;2023-02-08T21:27:04;7.87;;;5.57;;
11422;SDS011;5768;51.476;7.210;2023-02-08T21:32:06;5.87;;;5.17;;
11422;SDS011;5768;51.476;7.210;2023-02-08T21:37:09;5.40;;;4.70;;
11422;SDS011;5768;51.476;7.210;2023-02-08T21:42:12;6.13;;;4.60;;
11422;SDS011;5768;51.476;7.210;2023-02-08T21:47:14;5.57;;;4.53;;
11422;SDS011;5768;51.476;7.210;2023-02-08T21:52:17;6.00;;;4.90;;
11422;SDS011;5768;51.476;7.210;2023-02-08T21:57:38;5.83;;;5.23;;
11422;SDS011;5768;51.476;7.210;2023-02-08T22:02:40;5.60;;;4.80;;
11422;SDS011;5768;51.476;7.210;2023-02-08T22:07:43;6.07;;;4.70;;
11422;SDS011;5768;51.476;7.210;2023-02-08T22:12:49;5.33;;;4.73;;
11422;SDS011;5768;51.476;7.210;2023-02-08T22:17:54;5.60;;;4.80;;
11422;SDS011;5768;51.476;7.210;2023-02-08T22:22:57;5.50;;;4.73;;
11422;SDS011;5768;51.476;7.210;2023-02-08T22:28:02;6.33;;;5.30;;
11422;SDS011;5768;51.476;7.210;2023-02-08T22:33:05;6.87;;;5.10;;
11422;SDS011;5768;51.476;7.210;2023-02-08T22:38:07;6.10;;;5.00;;
11422;SDS011;5768;51.476;7.210;2023-02-08T22:43:11;6.50;;;5.20;;
11422;SDS011;5768;51.476;7.210;2023-02-08T22:48:13;5.93;;;4.97;;
11422;SDS011;5768;51.476;7.210;2023-02-08T22:53:15;6.60;;;5.20;;
11422;SDS011;5768;51.476;7.210;2023-02-08T22:58:19;7.00;;;5.80;;
11422;SDS011;5768;51.476;7.210;2023-02-08T23:03:22;7.47;;;5.67;;
11422;SDS011;5768;51.476;7.210;2023-02-08T23:08:24;7.00;;;5.73;;
11422;SDS011;5768;51.476;7.210;2023-02-08T23:13:28;7.00;;;5.77;;
11422;SDS011;5768;51.476;7.210;2023-02-08T23:18:31;7.57;;;5.20;;
11422;SDS011;5768;51.476;7.210;2023-02-08T23:23:35;6.97;;;5.43;;
11422;SDS011;5768;51.476;7.210;2023-02-08T23:28:39;6.73;;;5.80;;
11422;SDS011;5768;51.476;7.210;2023-02-08T23:33:42;7.07;;;5.50;;
11422;SDS011;5768;51.476;7.210;2023-02-08T23:38:44;6.17;;;5.27;;
11422;SDS011;5768;51.476;7.210;2023-02-08T23:43:49;6.97;;;5.57;;
11422;SDS011;5768;51.476;7.210;2023-02-08T23:48:52;6.90;;;5.60;;
11422;SDS011;5768;51.476;7.210;2023-02-08T23:53:55;6.60;;;5.23;;
11422;SDS011;5768;51.476;7.210;2023-02-08T23:58:58;6.50;;;5.43;;
